sensor_id;sensor_type;location;lat;lon;timestamp;P1;durP1;ratioP1;P2;durP2;ratioP2
53479;SDS011;56133;51.012;-1.648;2022-12-18T00:01:04;42.17;;;19.20;;
53479;SDS011;56133;51.012;-1.648;2022-12-18T00:03:34;39.17;;;19.23;;
53479;SDS011;56133;51.012;-1.648;2022-12-18T00:06:00;40.13;;;18.80;;
53479;SDS011;56133;51.012;-1.648;2022-12-18T00:08:27;44.47;;;19.63;;
53479;SDS011;56133;51.012;-1.648;2022-12-18T00:10:53;38.42;;;18.30;;
53479;SDS011;56133;51.012;-1.648;2022-12-18T00:13:19;41.25;;;20.00;;
53479;SDS011;56133;51.012;-1.648;2022-12-18T00:15:44;41.50;;;19.25;;
53479;SDS011;56133;51.012;-1.648;2022-12-18T00:18:10;40.83;;;19.30;;
53479;SDS011;56133;51.012;-1.648;2022-12-18T00:20:36;47.70;;;19.45;;
53479;SDS011;56133;51.012;-1.648;2022-12-18T00:23:03;42.03;;;18.05;;
53479;SDS011;56133;51.012;-1.648;2022-12-18T00:25:28;41.63;;;19.25;;
53479;SDS011;56133;51.012;-1.648;2022-12-18T00:27:54;39.47;;;19.45;;
53479;SDS011;56133;51.012;-1.648;2022-12-18T00:30:19;41.90;;;17.65;;
53479;SDS011;56133;51.012;-1.648;2022-12-18T00:32:45;46.40;;;19.63;;
53479;SDS011;56133;51.012;-1.648;2022-12-18T00:35:10;42.08;;;19.40;;
53479;SDS011;56133;51.012;-1.648;2022-12-18T00:37:36;45.42;;;19.67;;
53479;SDS011;56133;51.012;-1.648;2022-12-18T00:40:02;42.65;;;19.50;;
53479;SDS011;56133;51.012;-1.648;2022-12-18T00:42:28;47.08;;;18.77;;
53479;SDS011;56133;51.012;-1.648;2022-12-18T00:45:11;41.05;;;17.98;;
53479;SDS011;56133;51.012;-1.648;2022-12-18T00:47:37;45.95;;;20.23;;
53479;SDS011;56133;51.012;-1.648;2022-12-18T00:50:02;45.88;;;20.60;;
53479;SDS011;56133;51.012;-1.648;2022-12-18T00:52:28;44.75;;;19.85;;
53479;SDS011;56133;51.012;-1.648;2022-12-18T00:54:54;46.00;;;20.05;;
53479;SDS011;56133;51.012;-1.648;2022-12-18T00:57:19;48.67;;;19.73;;
53479;SDS011;56133;51.012;-1.648;2022-12-18T00:59:44;52.72;;;20.48;;
53479;SDS011;56133;51.012;-1.648;2022-12-18T01:02:10;48.83;;;20.73;;
53479;SDS011;56133;51.012;-1.648;2022-12-18T01:04:35;44.22;;;20.63;;
53479;SDS011;56133;51.012;-1.648;2022-12-18T01:07:01;46.95;;;20.60;;
53479;SDS011;56133;51.012;-1.648;2022-12-18T01:09:26;46.78;;;20.05;;
53479;SDS011;56133;51.012;-1.648;2022-12-18T01:11:52;48.15;;;20.70;;
53479;SDS011;56133;51.012;-1.648;2022-12-18T01:14:17;46.75;;;20.55;;
53479;SDS011;56133;51.012;-1.648;2022-12-18T01:16:43;50.88;;;20.58;;
53479;SDS011;56133;51.012;-1.648;2022-12-18T01:19:08;47.47;;;20.20;;
53479;SDS011;56133;51.012;-1.648;2022-12-18T01:21:33;45.33;;;19.80;;
53479;SDS011;56133;51.012;-1.648;2022-12-18T01:23:59;44.30;;;19.10;;
53479;SDS011;56133;51.012;-1.648;2022-12-18T01:26:25;45.13;;;18.60;;
53479;SDS011;56133;51.012;-1.648;2022-12-18T01:28:53;47.95;;;19.25;;
53479;SDS011;56133;51.012;-1.648;2022-12-18T01:31:21;39.92;;;18.63;;
53479;SDS011;56133;51.012;-1.648;2022-12-18T01:33:48;36.55;;;17.88;;
53479;SDS011;56133;51.012;-1.648;2022-12-18T01:36:18;42.20;;;17.77;;
53479;SDS011;56133;51.012;-1.648;2022-12-18T01:38:45;43.05;;;18.13;;
53479;SDS011;56133;51.012;-1.648;2022-12-18T01:41:11;38.85;;;17.42;;
53479;SDS011;56133;51.012;-1.648;2022-12-18T01:43:44;41.67;;;17.60;;
53479;SDS011;56133;51.012;-1.648;2022-12-18T01:46:11;46.08;;;17.77;;
53479;SDS011;56133;51.012;-1.648;2022-12-18T01:48:37;43.30;;;18.05;;
53479;SDS011;56133;51.012;-1.648;2022-12-18T01:51:04;44.40;;;18.45;;
53479;SDS011;56133;51.012;-1.648;2022-12-18T01:53:32;42.28;;;18.42;;
53479;SDS011;56133;51.012;-1.648;2022-12-18T01:55:58;41.75;;;18.08;;
53479;SDS011;56133;51.012;-1.648;2022-12-18T01:58:36;37.63;;;17.48;;
53479;SDS011;56133;51.012;-1.648;2022-12-18T02:01:10;39.28;;;17.52;;
53479;SDS011;56133;51.012;-1.648;2022-12-18T02:03:35;47.45;;;18.02;;
53479;SDS011;56133;51.012;-1.648;2022-12-18T02:08:57;35.97;;;17.48;;
53479;SDS011;56133;51.012;-1.648;2022-12-18T02:19:20;44.88;;;19.75;;
53479;SDS011;56133;51.012;-1.648;2022-12-18T02:27:30;41.80;;;18.45;;
53479;SDS011;56133;51.012;-1.648;2022-12-18T02:29:59;41.65;;;18.42;;
53479;SDS011;56133;51.012;-1.648;2022-12-18T02:32:31;40.45;;;18.48;;
53479;SDS011;56133;51.012;-1.648;2022-12-18T02:35:02;42.83;;;18.08;;
53479;SDS011;56133;51.012;-1.648;2022-12-18T02:37:31;45.47;;;17.88;;
53479;SDS011;56133;51.012;-1.648;2022-12-18T02:39:58;39.72;;;17.63;;
53479;SDS011;56133;51.012;-1.648;2022-12-18T02:42:25;41.08;;;18.30;;
53479;SDS011;56133;51.012;-1.648;2022-12-18T02:44:52;45.72;;;18.60;;
53479;SDS011;56133;51.012;-1.648;2022-12-18T02:47:19;41.22;;;19.67;;
53479;SDS011;56133;51.012;-1.648;2022-12-18T02:52:50;47.70;;;19.38;;
53479;SDS011;56133;51.012;-1.648;2022-12-18T02:55:57;47.25;;;19.83;;
53479;SDS011;56133;51.012;-1.648;2022-12-18T02:59:06;46.33;;;19.90;;
53479;SDS011;56133;51.012;-1.648;2022-12-18T03:04:06;45.72;;;19.27;;
53479;SDS011;56133;51.012;-1.648;2022-12-18T03:06:41;42.78;;;19.20;;
53479;SDS011;56133;51.012;-1.648;2022-12-18T03:09:10;47.20;;;19.77;;
53479;SDS011;56133;51.012;-1.648;2022-12-18T03:11:41;44.47;;;20.17;;
53479;SDS011;56133;51.012;-1.648;2022-12-18T03:14:29;53.47;;;20.63;;
53479;SDS011;56133;51.012;-1.648;2022-12-18T03:16:57;51.30;;;20.48;;
53479;SDS011;56133;51.012;-1.648;2022-12-18T03:19:27;49.13;;;20.95;;
53479;SDS011;56133;51.012;-1.648;2022-12-18T03:21:56;49.92;;;21.20;;
53479;SDS011;56133;51.012;-1.648;2022-12-18T03:24:24;51.45;;;21.92;;
53479;SDS011;56133;51.012;-1.648;2022-12-18T03:26:53;49.67;;;21.67;;
53479;SDS011;56133;51.012;-1.648;2022-12-18T03:29:24;52.60;;;22.08;;
53479;SDS011;56133;51.012;-1.648;2022-12-18T03:31:59;51.38;;;21.92;;
53479;SDS011;56133;51.012;-1.648;2022-12-18T03:34:30;48.97;;;22.75;;
53479;SDS011;56133;51.012;-1.648;2022-12-18T03:36:59;47.50;;;20.80;;
53479;SDS011;56133;51.012;-1.648;2022-12-18T03:39:27;51.10;;;22.52;;
53479;SDS011;56133;51.012;-1.648;2022-12-18T03:44:28;51.05;;;20.95;;
53479;SDS011;56133;51.012;-1.648;2022-12-18T03:52:40;45.72;;;21.05;;
53479;SDS011;56133;51.012;-1.648;2022-12-18T03:55:08;50.70;;;22.48;;
53479;SDS011;56133;51.012;-1.648;2022-12-18T03:57:34;47.95;;;21.20;;
53479;SDS011;56133;51.012;-1.648;2022-12-18T04:00:09;49.63;;;20.98;;
53479;SDS011;56133;51.012;-1.648;2022-12-18T04:02:38;51.47;;;22.55;;
53479;SDS011;56133;51.012;-1.648;2022-12-18T04:05:10;54.22;;;24.05;;
53479;SDS011;56133;51.012;-1.648;2022-12-18T04:07:38;50.88;;;23.50;;
53479;SDS011;56133;51.012;-1.648;2022-12-18T04:10:04;48.53;;;22.45;;
53479;SDS011;56133;51.012;-1.648;2022-12-18T04:12:32;50.33;;;22.85;;
53479;SDS011;56133;51.012;-1.648;2022-12-18T04:14:57;50.00;;;21.55;;
53479;SDS011;56133;51.012;-1.648;2022-12-18T04:17:23;51.97;;;21.70;;
53479;SDS011;56133;51.012;-1.648;2022-12-18T04:19:48;50.88;;;21.45;;
53479;SDS011;56133;51.012;-1.648;2022-12-18T04:22:14;45.22;;;19.98;;
53479;SDS011;56133;51.012;-1.648;2022-12-18T04:24:39;40.47;;;19.10;;
53479;SDS011;56133;51.012;-1.648;2022-12-18T04:27:05;43.50;;;20.38;;
53479;SDS011;56133;51.012;-1.648;2022-12-18T04:29:31;42.40;;;19.55;;
53479;SDS011;56133;51.012;-1.648;2022-12-18T04:31:56;42.35;;;19.10;;
53479;SDS011;56133;51.012;-1.648;2022-12-18T04:34:21;41.42;;;18.42;;
53479;SDS011;56133;51.012;-1.648;2022-12-18T04:36:47;43.55;;;18.40;;
53479;SDS011;56133;51.012;-1.648;2022-12-18T04:39:13;40.22;;;18.00;;
53479;SDS011;56133;51.012;-1.648;2022-12-18T04:41:39;43.70;;;18.15;;
53479;SDS011;56133;51.012;-1.648;2022-12-18T04:44:04;42.30;;;19.35;;
53479;SDS011;56133;51.012;-1.648;2022-12-18T04:46:30;43.05;;;19.20;;
53479;SDS011;56133;51.012;-1.648;2022-12-18T04:48:55;43.65;;;18.42;;
53479;SDS011;56133;51.012;-1.648;2022-12-18T04:51:21;39.25;;;17.08;;
53479;SDS011;56133;51.012;-1.648;2022-12-18T04:53:46;42.65;;;18.13;;
53479;SDS011;56133;51.012;-1.648;2022-12-18T04:56:13;41.45;;;18.70;;
53479;SDS011;56133;51.012;-1.648;2022-12-18T04:58:40;42.40;;;18.88;;
53479;SDS011;56133;51.012;-1.648;2022-12-18T05:01:08;37.70;;;18.10;;
53479;SDS011;56133;51.012;-1.648;2022-12-18T05:03:34;43.05;;;18.80;;
53479;SDS011;56133;51.012;-1.648;2022-12-18T05:06:00;36.85;;;17.45;;
53479;SDS011;56133;51.012;-1.648;2022-12-18T05:08:26;40.72;;;18.30;;
53479;SDS011;56133;51.012;-1.648;2022-12-18T05:11:08;41.28;;;18.27;;
53479;SDS011;56133;51.012;-1.648;2022-12-18T05:13:36;39.35;;;17.40;;
53479;SDS011;56133;51.012;-1.648;2022-12-18T05:16:03;39.28;;;17.33;;
53479;SDS011;56133;51.012;-1.648;2022-12-18T05:18:29;35.20;;;16.85;;
53479;SDS011;56133;51.012;-1.648;2022-12-18T05:20:54;37.88;;;17.27;;
53479;SDS011;56133;51.012;-1.648;2022-12-18T05:23:21;37.38;;;17.50;;
53479;SDS011;56133;51.012;-1.648;2022-12-18T05:25:51;38.75;;;16.98;;
53479;SDS011;56133;51.012;-1.648;2022-12-18T05:28:25;44.03;;;17.02;;
53479;SDS011;56133;51.012;-1.648;2022-12-18T05:30:53;38.20;;;17.48;;
53479;SDS011;56133;51.012;-1.648;2022-12-18T05:33:21;35.85;;;16.88;;
53479;SDS011;56133;51.012;-1.648;2022-12-18T05:35:55;37.42;;;17.15;;
53479;SDS011;56133;51.012;-1.648;2022-12-18T05:38:22;38.05;;;17.98;;
53479;SDS011;56133;51.012;-1.648;2022-12-18T05:40:50;44.72;;;18.02;;
53479;SDS011;56133;51.012;-1.648;2022-12-18T05:43:16;36.47;;;17.33;;
53479;SDS011;56133;51.012;-1.648;2022-12-18T05:45:43;38.20;;;17.67;;
53479;SDS011;56133;51.012;-1.648;2022-12-18T05:48:08;39.10;;;18.55;;
53479;SDS011;56133;51.012;-1.648;2022-12-18T05:50:39;36.95;;;17.67;;
53479;SDS011;56133;51.012;-1.648;2022-12-18T05:53:06;39.95;;;18.35;;
53479;SDS011;56133;51.012;-1.648;2022-12-18T05:55:35;37.58;;;17.88;;
53479;SDS011;56133;51.012;-1.648;2022-12-18T05:58:02;35.15;;;16.98;;
53479;SDS011;56133;51.012;-1.648;2022-12-18T06:00:29;35.58;;;17.02;;
53479;SDS011;56133;51.012;-1.648;2022-12-18T06:02:54;43.00;;;17.67;;
53479;SDS011;56133;51.012;-1.648;2022-12-18T06:05:20;35.30;;;16.95;;
53479;SDS011;56133;51.012;-1.648;2022-12-18T06:07:46;37.90;;;16.02;;
53479;SDS011;56133;51.012;-1.648;2022-12-18T06:10:11;38.55;;;17.63;;
53479;SDS011;56133;51.012;-1.648;2022-12-18T06:12:37;34.85;;;16.77;;
53479;SDS011;56133;51.012;-1.648;2022-12-18T06:15:02;32.63;;;16.90;;
53479;SDS011;56133;51.012;-1.648;2022-12-18T06:17:29;37.65;;;17.65;;
53479;SDS011;56133;51.012;-1.648;2022-12-18T06:19:54;36.58;;;18.55;;
53479;SDS011;56133;51.012;-1.648;2022-12-18T06:22:20;35.80;;;17.15;;
53479;SDS011;56133;51.012;-1.648;2022-12-18T06:24:45;38.53;;;18.08;;
53479;SDS011;56133;51.012;-1.648;2022-12-18T06:27:11;32.50;;;16.05;;
53479;SDS011;56133;51.012;-1.648;2022-12-18T06:29:36;32.90;;;16.45;;
53479;SDS011;56133;51.012;-1.648;2022-12-18T06:32:01;33.80;;;16.20;;
53479;SDS011;56133;51.012;-1.648;2022-12-18T06:34:27;31.10;;;15.70;;
53479;SDS011;56133;51.012;-1.648;2022-12-18T06:36:52;32.70;;;15.40;;
53479;SDS011;56133;51.012;-1.648;2022-12-18T06:39:18;31.15;;;15.73;;
53479;SDS011;56133;51.012;-1.648;2022-12-18T06:41:43;32.15;;;14.73;;
53479;SDS011;56133;51.012;-1.648;2022-12-18T06:44:09;28.60;;;14.30;;
53479;SDS011;56133;51.012;-1.648;2022-12-18T06:46:35;28.27;;;14.70;;
53479;SDS011;56133;51.012;-1.648;2022-12-18T06:49:00;29.17;;;13.98;;
53479;SDS011;56133;51.012;-1.648;2022-12-18T06:51:25;29.08;;;14.02;;
53479;SDS011;56133;51.012;-1.648;2022-12-18T06:53:51;26.00;;;13.98;;
53479;SDS011;56133;51.012;-1.648;2022-12-18T06:56:16;28.23;;;13.93;;
53479;SDS011;56133;51.012;-1.648;2022-12-18T06:58:42;27.83;;;13.48;;
53479;SDS011;56133;51.012;-1.648;2022-12-18T07:01:08;27.08;;;13.57;;
53479;SDS011;56133;51.012;-1.648;2022-12-18T07:03:35;25.90;;;13.50;;
53479;SDS011;56133;51.012;-1.648;2022-12-18T07:06:02;28.70;;;13.55;;
53479;SDS011;56133;51.012;-1.648;2022-12-18T07:08:28;28.63;;;12.80;;
53479;SDS011;56133;51.012;-1.648;2022-12-18T07:10:55;28.08;;;13.10;;
53479;SDS011;56133;51.012;-1.648;2022-12-18T07:13:20;26.05;;;13.68;;
53479;SDS011;56133;51.012;-1.648;2022-12-18T07:15:45;27.80;;;12.95;;
53479;SDS011;56133;51.012;-1.648;2022-12-18T07:18:11;28.00;;;13.10;;
53479;SDS011;56133;51.012;-1.648;2022-12-18T07:20:36;25.17;;;12.48;;
53479;SDS011;56133;51.012;-1.648;2022-12-18T07:23:02;26.38;;;13.23;;
53479;SDS011;56133;51.012;-1.648;2022-12-18T07:25:28;25.48;;;12.52;;
53479;SDS011;56133;51.012;-1.648;2022-12-18T07:27:54;25.83;;;12.88;;
53479;SDS011;56133;51.012;-1.648;2022-12-18T07:30:19;23.83;;;12.23;;
53479;SDS011;56133;51.012;-1.648;2022-12-18T07:32:45;24.80;;;13.02;;
53479;SDS011;56133;51.012;-1.648;2022-12-18T07:35:10;28.08;;;13.15;;
53479;SDS011;56133;51.012;-1.648;2022-12-18T07:37:36;26.42;;;12.32;;
53479;SDS011;56133;51.012;-1.648;2022-12-18T07:40:01;25.92;;;13.15;;
53479;SDS011;56133;51.012;-1.648;2022-12-18T07:42:27;26.65;;;13.10;;
53479;SDS011;56133;51.012;-1.648;2022-12-18T07:44:55;23.88;;;12.25;;
53479;SDS011;56133;51.012;-1.648;2022-12-18T07:47:21;30.08;;;14.23;;
53479;SDS011;56133;51.012;-1.648;2022-12-18T07:49:47;29.73;;;14.02;;
53479;SDS011;56133;51.012;-1.648;2022-12-18T07:52:12;24.70;;;13.63;;
53479;SDS011;56133;51.012;-1.648;2022-12-18T07:54:38;29.58;;;13.57;;
53479;SDS011;56133;51.012;-1.648;2022-12-18T07:57:04;25.45;;;13.98;;
53479;SDS011;56133;51.012;-1.648;2022-12-18T07:59:29;22.95;;;13.00;;
53479;SDS011;56133;51.012;-1.648;2022-12-18T08:01:54;30.08;;;14.68;;
53479;SDS011;56133;51.012;-1.648;2022-12-18T08:04:20;28.17;;;14.50;;
53479;SDS011;56133;51.012;-1.648;2022-12-18T08:06:45;29.90;;;14.85;;
53479;SDS011;56133;51.012;-1.648;2022-12-18T08:09:11;29.50;;;14.70;;
53479;SDS011;56133;51.012;-1.648;2022-12-18T08:11:36;30.30;;;15.15;;
53479;SDS011;56133;51.012;-1.648;2022-12-18T08:14:02;32.40;;;15.85;;
53479;SDS011;56133;51.012;-1.648;2022-12-18T08:16:27;31.63;;;15.10;;
53479;SDS011;56133;51.012;-1.648;2022-12-18T08:18:53;31.83;;;15.13;;
53479;SDS011;56133;51.012;-1.648;2022-12-18T08:21:20;31.30;;;15.13;;
53479;SDS011;56133;51.012;-1.648;2022-12-18T08:23:48;29.95;;;15.38;;
53479;SDS011;56133;51.012;-1.648;2022-12-18T08:26:15;31.70;;;15.48;;
53479;SDS011;56133;51.012;-1.648;2022-12-18T08:28:41;34.05;;;17.25;;
53479;SDS011;56133;51.012;-1.648;2022-12-18T08:31:07;34.60;;;17.15;;
53479;SDS011;56133;51.012;-1.648;2022-12-18T08:33:33;32.85;;;16.88;;
53479;SDS011;56133;51.012;-1.648;2022-12-18T08:35:59;40.30;;;17.98;;
53479;SDS011;56133;51.012;-1.648;2022-12-18T08:38:26;40.35;;;18.52;;
53479;SDS011;56133;51.012;-1.648;2022-12-18T08:41:07;36.28;;;17.42;;
53479;SDS011;56133;51.012;-1.648;2022-12-18T08:43:35;37.25;;;18.25;;
53479;SDS011;56133;51.012;-1.648;2022-12-18T08:46:21;34.25;;;17.95;;
53479;SDS011;56133;51.012;-1.648;2022-12-18T08:48:47;37.55;;;19.23;;
53479;SDS011;56133;51.012;-1.648;2022-12-18T08:51:16;42.05;;;19.05;;
53479;SDS011;56133;51.012;-1.648;2022-12-18T08:53:42;38.00;;;20.02;;
53479;SDS011;56133;51.012;-1.648;2022-12-18T08:56:09;43.92;;;20.02;;
53479;SDS011;56133;51.012;-1.648;2022-12-18T08:58:35;44.55;;;21.45;;
53479;SDS011;56133;51.012;-1.648;2022-12-18T09:01:01;40.42;;;20.13;;
53479;SDS011;56133;51.012;-1.648;2022-12-18T09:03:30;47.55;;;21.15;;
53479;SDS011;56133;51.012;-1.648;2022-12-18T09:05:56;54.17;;;21.40;;
53479;SDS011;56133;51.012;-1.648;2022-12-18T09:08:22;49.42;;;21.88;;
53479;SDS011;56133;51.012;-1.648;2022-12-18T09:10:48;41.47;;;22.15;;
53479;SDS011;56133;51.012;-1.648;2022-12-18T09:13:15;44.38;;;21.17;;
53479;SDS011;56133;51.012;-1.648;2022-12-18T09:15:42;46.83;;;22.92;;
53479;SDS011;56133;51.012;-1.648;2022-12-18T09:18:12;48.47;;;22.67;;
53479;SDS011;56133;51.012;-1.648;2022-12-18T09:20:39;50.10;;;22.85;;
53479;SDS011;56133;51.012;-1.648;2022-12-18T09:23:05;51.75;;;24.13;;
53479;SDS011;56133;51.012;-1.648;2022-12-18T09:25:31;49.35;;;23.52;;
53479;SDS011;56133;51.012;-1.648;2022-12-18T09:28:17;50.67;;;23.70;;
53479;SDS011;56133;51.012;-1.648;2022-12-18T09:30:45;51.65;;;23.88;;
53479;SDS011;56133;51.012;-1.648;2022-12-18T09:33:12;50.97;;;24.33;;
53479;SDS011;56133;51.012;-1.648;2022-12-18T09:35:41;53.38;;;24.33;;
53479;SDS011;56133;51.012;-1.648;2022-12-18T09:38:08;52.53;;;23.83;;
53479;SDS011;56133;51.012;-1.648;2022-12-18T09:40:48;51.15;;;23.75;;
53479;SDS011;56133;51.012;-1.648;2022-12-18T09:43:35;55.38;;;24.30;;
53479;SDS011;56133;51.012;-1.648;2022-12-18T09:46:09;54.47;;;24.02;;
53479;SDS011;56133;51.012;-1.648;2022-12-18T09:48:41;52.83;;;25.92;;
53479;SDS011;56133;51.012;-1.648;2022-12-18T09:51:17;48.67;;;23.38;;
53479;SDS011;56133;51.012;-1.648;2022-12-18T09:54:11;59.33;;;26.05;;
53479;SDS011;56133;51.012;-1.648;2022-12-18T09:56:43;61.45;;;26.98;;
53479;SDS011;56133;51.012;-1.648;2022-12-18T09:59:23;63.92;;;27.40;;
53479;SDS011;56133;51.012;-1.648;2022-12-18T10:01:52;59.60;;;28.17;;
53479;SDS011;56133;51.012;-1.648;2022-12-18T10:04:18;56.65;;;26.85;;
53479;SDS011;56133;51.012;-1.648;2022-12-18T10:06:54;64.15;;;28.33;;
53479;SDS011;56133;51.012;-1.648;2022-12-18T10:09:37;64.97;;;28.20;;
53479;SDS011;56133;51.012;-1.648;2022-12-18T10:25:22;75.30;;;32.50;;
53479;SDS011;56133;51.012;-1.648;2022-12-18T10:27:56;82.53;;;34.22;;
53479;SDS011;56133;51.012;-1.648;2022-12-18T10:30:25;73.63;;;32.17;;
53479;SDS011;56133;51.012;-1.648;2022-12-18T10:32:51;74.68;;;35.00;;
53479;SDS011;56133;51.012;-1.648;2022-12-18T10:40:53;87.40;;;36.38;;
53479;SDS011;56133;51.012;-1.648;2022-12-18T10:46:01;91.25;;;36.60;;
53479;SDS011;56133;51.012;-1.648;2022-12-18T10:48:27;82.03;;;35.33;;
53479;SDS011;56133;51.012;-1.648;2022-12-18T10:50:54;90.30;;;36.25;;
53479;SDS011;56133;51.012;-1.648;2022-12-18T10:53:23;88.28;;;35.63;;
53479;SDS011;56133;51.012;-1.648;2022-12-18T10:55:52;96.88;;;35.90;;
53479;SDS011;56133;51.012;-1.648;2022-12-18T11:01:02;96.55;;;39.30;;
53479;SDS011;56133;51.012;-1.648;2022-12-18T11:03:35;108.10;;;43.35;;
53479;SDS011;56133;51.012;-1.648;2022-12-18T11:06:12;109.57;;;46.38;;
53479;SDS011;56133;51.012;-1.648;2022-12-18T11:08:41;111.95;;;41.63;;
53479;SDS011;56133;51.012;-1.648;2022-12-18T11:11:28;117.82;;;43.10;;
53479;SDS011;56133;51.012;-1.648;2022-12-18T11:16:30;112.47;;;42.83;;
53479;SDS011;56133;51.012;-1.648;2022-12-18T11:19:13;106.80;;;42.10;;
53479;SDS011;56133;51.012;-1.648;2022-12-18T11:21:40;127.82;;;44.90;;
53479;SDS011;56133;51.012;-1.648;2022-12-18T11:24:13;101.97;;;40.13;;
53479;SDS011;56133;51.012;-1.648;2022-12-18T11:26:53;119.70;;;44.30;;
53479;SDS011;56133;51.012;-1.648;2022-12-18T11:29:23;128.25;;;45.90;;
53479;SDS011;56133;51.012;-1.648;2022-12-18T11:34:41;126.70;;;44.30;;
53479;SDS011;56133;51.012;-1.648;2022-12-18T11:37:11;124.07;;;43.28;;
53479;SDS011;56133;51.012;-1.648;2022-12-18T11:47:44;110.97;;;40.88;;
53479;SDS011;56133;51.012;-1.648;2022-12-18T11:50:18;109.40;;;41.78;;
53479;SDS011;56133;51.012;-1.648;2022-12-18T11:52:47;111.15;;;42.38;;
53479;SDS011;56133;51.012;-1.648;2022-12-18T11:55:14;111.00;;;40.00;;
53479;SDS011;56133;51.012;-1.648;2022-12-18T12:00:40;95.68;;;37.88;;
53479;SDS011;56133;51.012;-1.648;2022-12-18T12:06:18;88.07;;;36.00;;
53479;SDS011;56133;51.012;-1.648;2022-12-18T12:09:19;87.20;;;35.15;;
53479;SDS011;56133;51.012;-1.648;2022-12-18T12:35:23;69.65;;;31.38;;
53479;SDS011;56133;51.012;-1.648;2022-12-18T12:40:51;65.50;;;30.02;;
53479;SDS011;56133;51.012;-1.648;2022-12-18T12:43:29;68.35;;;30.00;;
53479;SDS011;56133;51.012;-1.648;2022-12-18T12:46:16;61.67;;;28.00;;
53479;SDS011;56133;51.012;-1.648;2022-12-18T12:53:53;64.97;;;27.90;;
53479;SDS011;56133;51.012;-1.648;2022-12-18T12:56:21;55.60;;;25.52;;
53479;SDS011;56133;51.012;-1.648;2022-12-18T13:12:52;46.97;;;20.65;;
53479;SDS011;56133;51.012;-1.648;2022-12-18T13:15:43;37.85;;;18.75;;
53479;SDS011;56133;51.012;-1.648;2022-12-18T13:20:34;34.22;;;17.77;;
53479;SDS011;56133;51.012;-1.648;2022-12-18T13:36:44;24.65;;;14.57;;
53479;SDS011;56133;51.012;-1.648;2022-12-18T13:41:39;24.15;;;14.98;;
53479;SDS011;56133;51.012;-1.648;2022-12-18T13:46:56;19.95;;;13.25;;
53479;SDS011;56133;51.012;-1.648;2022-12-18T13:49:29;22.50;;;13.38;;
53479;SDS011;56133;51.012;-1.648;2022-12-18T13:52:03;26.85;;;13.82;;
53479;SDS011;56133;51.012;-1.648;2022-12-18T13:54:45;22.40;;;13.07;;
53479;SDS011;56133;51.012;-1.648;2022-12-18T13:57:35;22.08;;;13.68;;
53479;SDS011;56133;51.012;-1.648;2022-12-18T14:02:55;17.98;;;10.88;;
53479;SDS011;56133;51.012;-1.648;2022-12-18T14:05:29;18.08;;;11.45;;
53479;SDS011;56133;51.012;-1.648;2022-12-18T14:08:06;16.52;;;10.60;;
53479;SDS011;56133;51.012;-1.648;2022-12-18T14:10:35;17.88;;;10.02;;
53479;SDS011;56133;51.012;-1.648;2022-12-18T14:13:05;15.63;;;10.10;;
53479;SDS011;56133;51.012;-1.648;2022-12-18T14:20:57;13.23;;;9.55;;
53479;SDS011;56133;51.012;-1.648;2022-12-18T14:26:19;13.18;;;8.73;;
53479;SDS011;56133;51.012;-1.648;2022-12-18T14:29:17;11.57;;;8.60;;
53479;SDS011;56133;51.012;-1.648;2022-12-18T14:34:53;14.98;;;9.18;;
53479;SDS011;56133;51.012;-1.648;2022-12-18T14:37:24;13.25;;;8.52;;
53479;SDS011;56133;51.012;-1.648;2022-12-18T14:42:29;11.10;;;7.78;;
53479;SDS011;56133;51.012;-1.648;2022-12-18T14:47:58;10.77;;;7.03;;
53479;SDS011;56133;51.012;-1.648;2022-12-18T14:50:24;11.52;;;7.10;;
53479;SDS011;56133;51.012;-1.648;2022-12-18T14:52:50;13.13;;;6.93;;
53479;SDS011;56133;51.012;-1.648;2022-12-18T14:55:19;9.70;;;6.47;;
53479;SDS011;56133;51.012;-1.648;2022-12-18T14:57:49;10.48;;;6.70;;
53479;SDS011;56133;51.012;-1.648;2022-12-18T15:00:18;9.23;;;6.38;;
53479;SDS011;56133;51.012;-1.648;2022-12-18T15:02:46;10.60;;;6.25;;
53479;SDS011;56133;51.012;-1.648;2022-12-18T15:05:18;8.48;;;6.13;;
53479;SDS011;56133;51.012;-1.648;2022-12-18T15:07:50;10.43;;;6.43;;
53479;SDS011;56133;51.012;-1.648;2022-12-18T15:12:44;10.50;;;5.80;;
53479;SDS011;56133;51.012;-1.648;2022-12-18T15:20:40;12.63;;;6.35;;
53479;SDS011;56133;51.012;-1.648;2022-12-18T15:25:47;9.82;;;5.85;;
53479;SDS011;56133;51.012;-1.648;2022-12-18T15:28:21;12.48;;;6.82;;
53479;SDS011;56133;51.012;-1.648;2022-12-18T15:33:38;13.50;;;5.40;;
53479;SDS011;56133;51.012;-1.648;2022-12-18T15:36:08;19.92;;;10.93;;
53479;SDS011;56133;51.012;-1.648;2022-12-18T15:38:35;8.95;;;5.45;;
53479;SDS011;56133;51.012;-1.648;2022-12-18T15:41:01;11.48;;;5.95;;
53479;SDS011;56133;51.012;-1.648;2022-12-18T15:43:30;13.15;;;6.30;;
53479;SDS011;56133;51.012;-1.648;2022-12-18T15:45:58;8.50;;;5.68;;
53479;SDS011;56133;51.012;-1.648;2022-12-18T15:48:25;13.15;;;5.90;;
53479;SDS011;56133;51.012;-1.648;2022-12-18T15:50:50;11.82;;;5.75;;
53479;SDS011;56133;51.012;-1.648;2022-12-18T15:53:18;10.45;;;6.15;;
53479;SDS011;56133;51.012;-1.648;2022-12-18T15:55:44;10.15;;;6.13;;
53479;SDS011;56133;51.012;-1.648;2022-12-18T15:58:28;12.38;;;6.43;;
53479;SDS011;56133;51.012;-1.648;2022-12-18T16:00:53;13.38;;;5.95;;
53479;SDS011;56133;51.012;-1.648;2022-12-18T16:03:23;11.68;;;6.78;;
53479;SDS011;56133;51.012;-1.648;2022-12-18T16:05:48;11.35;;;6.65;;
53479;SDS011;56133;51.012;-1.648;2022-12-18T16:08:14;15.68;;;6.78;;
53479;SDS011;56133;51.012;-1.648;2022-12-18T16:10:39;12.05;;;7.18;;
53479;SDS011;56133;51.012;-1.648;2022-12-18T16:13:05;13.63;;;6.45;;
53479;SDS011;56133;51.012;-1.648;2022-12-18T16:15:34;11.00;;;6.43;;
53479;SDS011;56133;51.012;-1.648;2022-12-18T16:17:59;12.35;;;7.20;;
53479;SDS011;56133;51.012;-1.648;2022-12-18T16:20:25;14.75;;;8.07;;
53479;SDS011;56133;51.012;-1.648;2022-12-18T16:22:50;12.82;;;7.38;;
53479;SDS011;56133;51.012;-1.648;2022-12-18T16:25:17;15.90;;;8.30;;
53479;SDS011;56133;51.012;-1.648;2022-12-18T16:27:50;11.48;;;7.63;;
53479;SDS011;56133;51.012;-1.648;2022-12-18T16:30:18;17.95;;;8.90;;
53479;SDS011;56133;51.012;-1.648;2022-12-18T16:32:46;12.40;;;7.30;;
53479;SDS011;56133;51.012;-1.648;2022-12-18T16:35:12;14.57;;;7.55;;
53479;SDS011;56133;51.012;-1.648;2022-12-18T16:37:39;19.30;;;7.97;;
53479;SDS011;56133;51.012;-1.648;2022-12-18T16:40:06;14.95;;;7.38;;
53479;SDS011;56133;51.012;-1.648;2022-12-18T16:42:34;18.48;;;7.60;;
53479;SDS011;56133;51.012;-1.648;2022-12-18T16:45:11;11.30;;;7.38;;
53479;SDS011;56133;51.012;-1.648;2022-12-18T16:47:38;15.05;;;8.20;;
53479;SDS011;56133;51.012;-1.648;2022-12-18T16:50:04;15.07;;;6.97;;
53479;SDS011;56133;51.012;-1.648;2022-12-18T16:52:31;19.27;;;8.23;;
53479;SDS011;56133;51.012;-1.648;2022-12-18T16:54:57;12.20;;;6.65;;
53479;SDS011;56133;51.012;-1.648;2022-12-18T16:57:22;15.77;;;8.27;;
53479;SDS011;56133;51.012;-1.648;2022-12-18T16:59:48;20.58;;;7.75;;
53479;SDS011;56133;51.012;-1.648;2022-12-18T17:02:21;17.83;;;7.05;;
53479;SDS011;56133;51.012;-1.648;2022-12-18T17:04:49;19.17;;;7.20;;
53479;SDS011;56133;51.012;-1.648;2022-12-18T17:07:17;18.48;;;7.40;;
53479;SDS011;56133;51.012;-1.648;2022-12-18T17:09:42;16.83;;;7.18;;
53479;SDS011;56133;51.012;-1.648;2022-12-18T17:12:08;18.98;;;6.43;;
53479;SDS011;56133;51.012;-1.648;2022-12-18T17:14:33;20.77;;;10.00;;